createdAt,value
2019-02-26T05:51:44.126Z,2.90
2019-02-26T10:23:56.717Z,11.00
2019-02-26T10:26:30.489Z,11.10
2019-02-26T10:29:04.548Z,11.30
2019-02-26T10:31:31.665Z,11.40
2019-02-26T10:34:03.026Z,11.50
2019-02-26T10:36:36.432Z,11.70
2019-02-26T10:39:08.554Z,11.80
2019-02-26T10:41:42.275Z,11.90
2019-02-26T10:44:14.693Z,12.10
2019-02-26T10:46:45.600Z,12.20
2019-02-26T10:49:16.107Z,12.20
2019-02-26T10:51:46.581Z,12.30
2019-02-26T10:54:18.114Z,12.50
2019-02-26T10:56:48.790Z,12.60
2019-02-26T10:59:19.788Z,12.80
2019-02-26T11:01:53.256Z,12.90
2019-02-26T11:04:34.224Z,13.20
2019-02-26T11:06:56.094Z,13.40
2019-02-26T11:09:29.464Z,13.70
2019-02-26T11:12:00.813Z,14.00
2019-02-26T11:14:33.448Z,14.30
2019-02-26T11:17:03.383Z,14.60
2019-02-26T11:19:36.663Z,15.00
2019-02-26T11:22:07.226Z,15.30
2019-02-26T11:24:37.805Z,15.60
2019-02-26T11:27:09.391Z,15.70
2019-02-26T11:29:40.766Z,15.80
2019-02-26T11:32:13.453Z,15.80
2019-02-26T11:34:44.700Z,15.80
2019-02-26T11:37:15.353Z,15.80
2019-02-26T11:39:46.086Z,15.80
2019-02-26T11:42:18.560Z,17.40
2019-02-26T11:44:49.128Z,20.70
2019-02-26T11:47:20.632Z,23.20
2019-02-26T11:49:51.196Z,24.70
2019-02-26T11:52:21.769Z,25.70
2019-02-26T11:54:52.388Z,25.40
2019-02-26T11:57:22.884Z,24.50
2019-02-26T11:59:53.364Z,23.80
2019-02-26T12:02:28.017Z,23.60
2019-02-26T12:04:57.558Z,24.00
2019-02-26T12:07:29.787Z,23.30
2019-02-26T12:10:08.739Z,22.10
2019-02-26T12:12:36.830Z,21.70
2019-02-26T12:15:10.053Z,22.40
2019-02-26T12:17:39.434Z,23.70
2019-02-26T12:20:12.126Z,24.60
2019-02-26T12:22:41.209Z,25.50
2019-02-26T12:25:11.114Z,25.90
2019-02-26T12:27:41.314Z,25.80
2019-02-26T12:30:13.382Z,25.30
2019-02-26T12:32:45.508Z,25.50
2019-02-26T12:35:17.241Z,26.00
2019-02-26T12:37:42.732Z,25.50
2019-02-26T12:40:13.128Z,25.50
2019-02-26T12:42:41.341Z,25.50
2019-02-26T12:45:13.611Z,25.90
2019-02-26T12:47:42.885Z,26.50
2019-02-26T12:50:13.187Z,25.70
2019-02-26T12:52:42.317Z,24.90
2019-02-26T12:55:11.726Z,25.00
2019-02-26T12:57:39.841Z,25.60
2019-02-26T13:00:13.167Z,25.70
2019-02-26T13:02:43.313Z,25.10
2019-02-26T13:05:13.464Z,23.70
2019-02-26T13:07:41.523Z,22.20
2019-02-26T13:10:12.465Z,21.40
2019-02-26T13:12:40.823Z,21.80
2019-02-26T13:15:19.262Z,22.70
2019-02-26T13:17:48.892Z,23.50
2019-02-26T13:20:20.228Z,23.40
2019-02-26T13:22:48.444Z,23.80
2019-02-26T13:25:17.871Z,24.40
2019-02-26T13:27:48.079Z,24.80
2019-02-26T13:30:19.933Z,24.90
2019-02-26T13:32:56.342Z,24.10
2019-02-26T13:35:21.018Z,23.90
2019-02-26T13:37:49.554Z,23.30
2019-02-26T13:40:18.617Z,22.10
2019-02-26T13:42:56.623Z,21.20
2019-02-26T13:45:23.347Z,20.60
2019-02-26T13:47:52.395Z,20.20
2019-02-26T13:50:22.841Z,20.00
2019-02-26T13:52:51.024Z,20.00
2019-02-26T13:55:19.708Z,20.60
2019-02-26T13:57:47.992Z,21.90
2019-02-26T14:00:23.549Z,22.70
2019-02-26T14:02:46.313Z,22.90
2019-02-26T14:05:14.480Z,22.40
2019-02-26T14:07:43.147Z,21.40
2019-02-26T14:10:13.692Z,20.30
2019-02-26T14:18:57.582Z,18.40
2019-02-26T14:21:38.446Z,18.10
2019-02-26T14:24:06.560Z,17.90
2019-02-26T14:26:34.666Z,17.70
2019-02-26T14:29:05.295Z,17.50
2019-02-26T14:31:33.209Z,17.50
2019-02-26T14:37:33.304Z,17.30
2019-02-26T14:40:25.379Z,17.30
2019-02-26T14:42:54.697Z,17.20
2019-02-26T14:45:26.177Z,17.10
2019-02-26T14:47:54.898Z,17.10
2019-02-26T14:50:23.001Z,17.10
2019-02-26T14:52:51.043Z,17.10
2019-02-26T14:55:19.132Z,17.00
2019-02-26T14:57:49.897Z,17.00
2019-02-26T15:00:21.864Z,16.80
2019-02-26T15:02:50.193Z,16.80
2019-02-26T16:53:00.291Z,14.20
2019-02-26T16:55:28.504Z,14.10
2019-02-26T16:57:56.834Z,14.00
2019-02-26T17:00:26.783Z,13.90
2019-02-26T17:02:55.089Z,13.80
2019-02-26T17:05:23.317Z,13.70
2019-02-26T17:07:56.766Z,13.70
2019-02-26T17:10:29.137Z,13.60
2019-02-26T17:12:55.750Z,13.50
2019-02-26T17:15:59.647Z,13.40
2019-02-26T17:18:27.430Z,13.30
2019-02-26T17:20:56.876Z,13.20
2019-02-26T17:23:25.339Z,13.10
2019-02-26T17:25:53.482Z,13.00
2019-02-26T17:28:35.715Z,12.90
2019-02-26T17:31:03.785Z,12.80
2019-02-26T17:33:34.181Z,12.70
2019-02-26T17:36:02.627Z,12.60
2019-02-26T17:38:30.628Z,12.50
2019-02-26T17:40:58.801Z,12.50
2019-02-26T17:43:26.687Z,12.40
2019-02-26T17:45:54.836Z,12.30
2019-02-26T17:48:25.996Z,12.30
2019-02-26T17:50:54.111Z,12.20
2019-02-26T17:53:22.480Z,12.10
2019-02-26T17:55:53.591Z,12.10
2019-02-26T17:58:24.908Z,12.00
2019-02-26T18:00:58.529Z,11.90
2019-02-26T18:03:27.658Z,11.80
2019-02-26T18:05:55.996Z,11.80
2019-02-26T18:08:46.463Z,11.70
2019-02-26T18:11:14.880Z,11.70
2019-02-26T18:13:43.995Z,11.60
2019-02-26T18:16:12.016Z,11.60
2019-02-26T18:18:39.711Z,11.50
2019-02-26T18:21:07.866Z,11.50
2019-02-26T18:23:38.718Z,11.40
2019-02-26T18:26:06.445Z,11.40
2019-02-26T18:28:36.787Z,11.40
2019-02-26T18:31:04.922Z,11.40
2019-02-26T18:33:35.593Z,11.30
2019-02-26T18:36:03.169Z,11.20
2019-02-26T18:41:35.113Z,11.00
2019-02-26T18:44:05.875Z,11.00
2019-02-26T18:46:34.490Z,10.90
2019-02-26T18:49:02.772Z,10.80
2019-02-26T18:51:36.114Z,10.80
2019-02-26T18:54:00.844Z,10.70
2019-02-26T18:56:28.815Z,10.70
2019-02-26T18:58:56.533Z,10.60
2019-02-26T19:01:24.858Z,10.50
2019-02-26T19:03:55.687Z,10.50
2019-02-26T19:06:24.672Z,10.50
2019-02-26T19:08:53.447Z,10.40
2019-02-26T19:11:25.403Z,10.30
2019-02-26T19:13:51.746Z,10.30
2019-02-26T19:16:20.698Z,10.30
2019-02-26T19:18:51.807Z,10.30
2019-02-26T19:21:21.805Z,10.20
2019-02-26T19:23:50.141Z,10.20
2019-02-26T19:26:18.076Z,10.20
2019-02-26T19:28:46.449Z,10.10
2019-02-26T19:31:14.402Z,10.10
2019-02-26T19:33:42.350Z,10.00
2019-02-26T19:36:13.661Z,10.00
2019-02-26T19:38:41.778Z,10.00
2019-02-26T19:41:14.483Z,9.90
2019-02-26T19:43:42.397Z,9.90
2019-02-26T19:46:10.321Z,9.90
2019-02-26T19:48:39.025Z,9.90
2019-02-26T19:51:09.231Z,9.80
2019-02-26T19:53:37.293Z,9.80
2019-02-26T19:56:33.125Z,9.80
2019-02-26T19:59:07.388Z,9.70
2019-02-26T20:01:39.096Z,9.70
2019-02-26T20:04:14.120Z,9.70
2019-02-26T20:07:29.738Z,9.70
2019-02-26T20:10:01.349Z,9.70
2019-02-26T20:12:44.708Z,9.60
2019-02-26T20:40:25.629Z,9.40
2019-02-26T20:42:53.298Z,9.30
2019-02-26T20:48:36.545Z,9.20
2019-02-26T20:54:28.182Z,9.10
2019-02-26T21:44:08.798Z,8.20
2019-02-26T21:49:18.090Z,8.20
2019-02-26T21:51:46.184Z,8.20
2019-02-26T21:54:13.972Z,8.20
2019-02-26T21:56:41.931Z,8.20
2019-02-26T21:59:09.934Z,8.20
2019-02-26T22:01:37.860Z,8.20
2019-02-26T22:04:05.620Z,8.20
2019-02-26T22:06:33.297Z,8.30
2019-02-26T22:09:01.438Z,8.30
2019-02-26T22:11:31.219Z,8.30
2019-02-26T22:14:00.015Z,8.20
2019-02-26T22:16:28.492Z,8.20
2019-02-26T22:18:56.266Z,8.10
2019-02-26T22:21:24.066Z,8.00
2019-02-26T22:23:51.869Z,8.00
2019-02-26T22:26:19.749Z,7.90
2019-02-26T22:28:47.555Z,7.90
2019-02-26T22:31:15.235Z,7.90
2019-02-26T22:33:43.434Z,7.90
2019-02-26T22:36:13.734Z,7.90
2019-02-26T22:38:41.519Z,7.80
2019-02-26T22:41:09.905Z,7.90
2019-02-26T22:43:37.571Z,7.80
2019-02-26T22:46:05.347Z,7.80
2019-02-26T22:48:32.971Z,7.80
2019-02-26T22:51:00.844Z,7.70
2019-02-26T22:53:28.598Z,7.70
2019-02-26T22:55:56.245Z,7.60
2019-02-26T22:58:24.023Z,7.50
2019-02-26T23:01:16.607Z,7.50
2019-02-26T23:03:46.585Z,7.40
2019-02-26T23:06:14.511Z,7.30
2019-02-26T23:08:44.872Z,7.30
2019-02-26T23:11:13.357Z,7.30
2019-02-26T23:13:41.600Z,7.30
2019-02-26T23:16:09.700Z,7.20
2019-02-26T23:18:38.405Z,7.30
2019-02-26T23:21:06.372Z,7.20
2019-02-26T23:23:34.742Z,7.20
2019-02-26T23:26:02.818Z,7.20
